sensor_id;sensor_type;location;lat;lon;timestamp;temperature;humidity
17405;DHT22;8820;54.604;18.226;2023-11-21T00:00:07;3.30;99.90
17405;DHT22;8820;54.604;18.226;2023-11-21T00:02:40;3.20;99.90
17405;DHT22;8820;54.604;18.226;2023-11-21T00:05:09;3.20;99.90
17405;DHT22;8820;54.604;18.226;2023-11-21T00:07:38;3.20;99.90
17405;DHT22;8820;54.604;18.226;2023-11-21T00:10:07;3.20;99.90
17405;DHT22;8820;54.604;18.226;2023-11-21T00:12:38;3.20;99.90
17405;DHT22;8820;54.604;18.226;2023-11-21T00:15:10;3.10;99.90
17405;DHT22;8820;54.604;18.226;2023-11-21T00:17:39;3.00;99.90
17405;DHT22;8820;54.604;18.226;2023-11-21T00:20:08;2.90;99.90
17405;DHT22;8820;54.604;18.226;2023-11-21T00:22:40;2.90;99.90
17405;DHT22;8820;54.604;18.226;2023-11-21T00:25:09;2.80;99.90
17405;DHT22;8820;54.604;18.226;2023-11-21T00:27:38;2.80;99.90
17405;DHT22;8820;54.604;18.226;2023-11-21T00:30:08;2.80;99.90
17405;DHT22;8820;54.604;18.226;2023-11-21T00:32:37;2.70;99.90
17405;DHT22;8820;54.604;18.226;2023-11-21T00:35:06;2.70;99.90
17405;DHT22;8820;54.604;18.226;2023-11-21T00:37:35;2.70;99.90
17405;DHT22;8820;54.604;18.226;2023-11-21T00:40:07;2.70;99.90
17405;DHT22;8820;54.604;18.226;2023-11-21T00:42:37;2.70;99.90
17405;DHT22;8820;54.604;18.226;2023-11-21T00:45:07;2.70;99.90
17405;DHT22;8820;54.604;18.226;2023-11-21T00:47:36;2.70;99.90
17405;DHT22;8820;54.604;18.226;2023-11-21T00:50:07;2.80;99.90
17405;DHT22;8820;54.604;18.226;2023-11-21T00:52:36;2.80;99.90
17405;DHT22;8820;54.604;18.226;2023-11-21T00:55:05;2.70;99.90
17405;DHT22;8820;54.604;18.226;2023-11-21T00:57:35;2.70;99.90
17405;DHT22;8820;54.604;18.226;2023-11-21T01:00:07;2.70;99.90
17405;DHT22;8820;54.604;18.226;2023-11-21T01:02:38;2.60;99.90
17405;DHT22;8820;54.604;18.226;2023-11-21T01:05:07;2.60;99.90
17405;DHT22;8820;54.604;18.226;2023-11-21T01:07:36;2.70;99.90
17405;DHT22;8820;54.604;18.226;2023-11-21T01:10:05;2.70;99.90
17405;DHT22;8820;54.604;18.226;2023-11-21T01:12:34;2.70;99.90
17405;DHT22;8820;54.604;18.226;2023-11-21T01:15:06;2.70;99.90
17405;DHT22;8820;54.604;18.226;2023-11-21T01:17:35;2.80;99.90
17405;DHT22;8820;54.604;18.226;2023-11-21T01:20:04;2.80;99.90
17405;DHT22;8820;54.604;18.226;2023-11-21T01:22:38;2.90;99.90
17405;DHT22;8820;54.604;18.226;2023-11-21T01:25:07;3.00;99.90
17405;DHT22;8820;54.604;18.226;2023-11-21T01:27:35;3.00;99.90
17405;DHT22;8820;54.604;18.226;2023-11-21T01:30:06;3.10;99.90
17405;DHT22;8820;54.604;18.226;2023-11-21T01:32:37;3.10;99.90
17405;DHT22;8820;54.604;18.226;2023-11-21T01:35:07;3.10;99.90
17405;DHT22;8820;54.604;18.226;2023-11-21T01:37:37;3.20;99.90
17405;DHT22;8820;54.604;18.226;2023-11-21T01:40:06;3.20;99.90
17405;DHT22;8820;54.604;18.226;2023-11-21T01:42:38;3.10;99.90
17405;DHT22;8820;54.604;18.226;2023-11-21T01:45:09;3.10;99.90
17405;DHT22;8820;54.604;18.226;2023-11-21T01:47:41;3.00;99.90
17405;DHT22;8820;54.604;18.226;2023-11-21T01:50:13;3.10;99.90
17405;DHT22;8820;54.604;18.226;2023-11-21T01:52:43;3.10;99.90
17405;DHT22;8820;54.604;18.226;2023-11-21T01:55:11;3.20;99.90
17405;DHT22;8820;54.604;18.226;2023-11-21T01:57:50;3.30;99.90
17405;DHT22;8820;54.604;18.226;2023-11-21T02:00:20;3.30;99.00
17405;DHT22;8820;54.604;18.226;2023-11-21T02:02:49;3.40;96.80
17405;DHT22;8820;54.604;18.226;2023-11-21T02:05:19;3.40;96.60
17405;DHT22;8820;54.604;18.226;2023-11-21T02:07:48;3.40;96.20
17405;DHT22;8820;54.604;18.226;2023-11-21T02:10:19;3.40;94.90
17405;DHT22;8820;54.604;18.226;2023-11-21T02:12:50;3.50;95.30
17405;DHT22;8820;54.604;18.226;2023-11-21T02:15:20;3.50;93.60
17405;DHT22;8820;54.604;18.226;2023-11-21T02:17:49;3.50;93.40
17405;DHT22;8820;54.604;18.226;2023-11-21T02:20:19;3.50;93.90
17405;DHT22;8820;54.604;18.226;2023-11-21T02:22:52;3.50;93.10
17405;DHT22;8820;54.604;18.226;2023-11-21T02:25:25;3.50;92.20
17405;DHT22;8820;54.604;18.226;2023-11-21T02:27:55;3.50;93.00
17405;DHT22;8820;54.604;18.226;2023-11-21T02:30:23;3.50;92.10
17405;DHT22;8820;54.604;18.226;2023-11-21T02:32:55;3.60;92.10
17405;DHT22;8820;54.604;18.226;2023-11-21T02:35:25;3.50;92.20
17405;DHT22;8820;54.604;18.226;2023-11-21T02:37:55;3.60;91.60
17405;DHT22;8820;54.604;18.226;2023-11-21T02:40:24;3.60;92.50
17405;DHT22;8820;54.604;18.226;2023-11-21T02:42:54;3.60;92.30
17405;DHT22;8820;54.604;18.226;2023-11-21T02:45:22;3.70;92.60
17405;DHT22;8820;54.604;18.226;2023-11-21T02:47:51;3.70;92.00
17405;DHT22;8820;54.604;18.226;2023-11-21T02:50:24;3.70;91.40
17405;DHT22;8820;54.604;18.226;2023-11-21T02:52:55;3.70;92.00
17405;DHT22;8820;54.604;18.226;2023-11-21T02:55:25;3.70;92.30
17405;DHT22;8820;54.604;18.226;2023-11-21T02:57:54;3.70;92.80
17405;DHT22;8820;54.604;18.226;2023-11-21T03:00:23;3.60;92.40
17405;DHT22;8820;54.604;18.226;2023-11-21T03:02:54;3.70;93.20
17405;DHT22;8820;54.604;18.226;2023-11-21T03:05:25;3.70;93.10
17405;DHT22;8820;54.604;18.226;2023-11-21T03:07:55;3.70;93.90
17405;DHT22;8820;54.604;18.226;2023-11-21T03:10:25;3.70;94.40
17405;DHT22;8820;54.604;18.226;2023-11-21T03:12:54;3.70;93.50
17405;DHT22;8820;54.604;18.226;2023-11-21T03:15:24;3.70;94.30
17405;DHT22;8820;54.604;18.226;2023-11-21T03:17:52;3.70;94.30
17405;DHT22;8820;54.604;18.226;2023-11-21T03:20:21;3.60;94.50
17405;DHT22;8820;54.604;18.226;2023-11-21T03:22:49;3.40;95.10
17405;DHT22;8820;54.604;18.226;2023-11-21T03:25:19;3.40;95.90
17405;DHT22;8820;54.604;18.226;2023-11-21T03:27:51;3.40;96.20
17405;DHT22;8820;54.604;18.226;2023-11-21T03:30:19;3.40;95.80
17405;DHT22;8820;54.604;18.226;2023-11-21T03:32:48;3.40;95.80
17405;DHT22;8820;54.604;18.226;2023-11-21T03:35:16;3.30;95.70
17405;DHT22;8820;54.604;18.226;2023-11-21T03:37:48;3.20;95.30
17405;DHT22;8820;54.604;18.226;2023-11-21T03:40:16;3.10;94.60
17405;DHT22;8820;54.604;18.226;2023-11-21T03:42:46;3.10;94.80
17405;DHT22;8820;54.604;18.226;2023-11-21T03:45:14;3.00;95.00
17405;DHT22;8820;54.604;18.226;2023-11-21T03:47:43;3.00;94.90
17405;DHT22;8820;54.604;18.226;2023-11-21T03:50:11;3.00;94.40
17405;DHT22;8820;54.604;18.226;2023-11-21T03:52:39;3.00;94.20
17405;DHT22;8820;54.604;18.226;2023-11-21T03:55:08;2.90;93.90
17405;DHT22;8820;54.604;18.226;2023-11-21T03:57:40;2.90;94.00
17405;DHT22;8820;54.604;18.226;2023-11-21T04:00:11;2.90;94.00
17405;DHT22;8820;54.604;18.226;2023-11-21T04:02:39;2.80;93.80
17405;DHT22;8820;54.604;18.226;2023-11-21T04:05:08;2.70;94.00
17405;DHT22;8820;54.604;18.226;2023-11-21T04:07:37;2.60;94.60
17405;DHT22;8820;54.604;18.226;2023-11-21T04:10:08;2.50;94.40
17405;DHT22;8820;54.604;18.226;2023-11-21T04:12:39;2.50;94.60
17405;DHT22;8820;54.604;18.226;2023-11-21T04:15:10;2.40;94.90
17405;DHT22;8820;54.604;18.226;2023-11-21T04:17:39;2.40;94.50
17405;DHT22;8820;54.604;18.226;2023-11-21T04:20:09;2.40;95.40
17405;DHT22;8820;54.604;18.226;2023-11-21T04:22:38;2.30;96.00
17405;DHT22;8820;54.604;18.226;2023-11-21T04:25:12;2.30;96.70
17405;DHT22;8820;54.604;18.226;2023-11-21T04:27:41;2.30;97.10
17405;DHT22;8820;54.604;18.226;2023-11-21T04:30:13;2.20;97.20
17405;DHT22;8820;54.604;18.226;2023-11-21T04:32:42;2.20;97.10
17405;DHT22;8820;54.604;18.226;2023-11-21T04:35:10;2.20;97.70
17405;DHT22;8820;54.604;18.226;2023-11-21T04:37:38;2.20;97.60
17405;DHT22;8820;54.604;18.226;2023-11-21T04:40:08;2.10;97.80
17405;DHT22;8820;54.604;18.226;2023-11-21T04:42:36;2.10;98.20
17405;DHT22;8820;54.604;18.226;2023-11-21T04:45:06;2.00;98.70
17405;DHT22;8820;54.604;18.226;2023-11-21T04:47:38;2.10;98.90
17405;DHT22;8820;54.604;18.226;2023-11-21T04:50:06;2.00;98.90
17405;DHT22;8820;54.604;18.226;2023-11-21T04:52:35;2.00;99.60
17405;DHT22;8820;54.604;18.226;2023-11-21T04:55:04;2.00;99.40
17405;DHT22;8820;54.604;18.226;2023-11-21T04:57:33;2.00;99.70
17405;DHT22;8820;54.604;18.226;2023-11-21T05:00:02;2.00;99.90
17405;DHT22;8820;54.604;18.226;2023-11-21T05:02:33;1.90;99.90
17405;DHT22;8820;54.604;18.226;2023-11-21T05:05:04;2.00;99.90
17405;DHT22;8820;54.604;18.226;2023-11-21T05:07:35;2.00;99.90
17405;DHT22;8820;54.604;18.226;2023-11-21T05:10:05;2.00;99.80
17405;DHT22;8820;54.604;18.226;2023-11-21T05:12:37;2.00;99.90
17405;DHT22;8820;54.604;18.226;2023-11-21T05:15:07;1.90;99.90
17405;DHT22;8820;54.604;18.226;2023-11-21T05:17:36;2.00;99.90
17405;DHT22;8820;54.604;18.226;2023-11-21T05:20:08;2.10;99.40
17405;DHT22;8820;54.604;18.226;2023-11-21T05:22:38;2.10;99.00
17405;DHT22;8820;54.604;18.226;2023-11-21T05:25:08;2.20;97.50
17405;DHT22;8820;54.604;18.226;2023-11-21T05:27:36;2.20;97.30
17405;DHT22;8820;54.604;18.226;2023-11-21T05:30:06;2.20;97.10
17405;DHT22;8820;54.604;18.226;2023-11-21T05:32:36;2.20;96.10
17405;DHT22;8820;54.604;18.226;2023-11-21T05:35:07;2.20;96.80
17405;DHT22;8820;54.604;18.226;2023-11-21T05:37:39;2.20;97.00
17405;DHT22;8820;54.604;18.226;2023-11-21T05:40:08;2.20;96.00
17405;DHT22;8820;54.604;18.226;2023-11-21T05:42:36;2.20;96.30
17405;DHT22;8820;54.604;18.226;2023-11-21T05:45:06;2.20;95.90
17405;DHT22;8820;54.604;18.226;2023-11-21T05:47:38;2.20;95.30
17405;DHT22;8820;54.604;18.226;2023-11-21T05:50:10;2.20;95.90
17405;DHT22;8820;54.604;18.226;2023-11-21T05:52:39;2.10;95.30
17405;DHT22;8820;54.604;18.226;2023-11-21T05:55:08;2.00;96.00
17405;DHT22;8820;54.604;18.226;2023-11-21T05:57:38;2.10;95.60
17405;DHT22;8820;54.604;18.226;2023-11-21T06:00:08;2.10;96.40
17405;DHT22;8820;54.604;18.226;2023-11-21T06:02:46;2.00;97.00
17405;DHT22;8820;54.604;18.226;2023-11-21T06:05:20;2.10;96.80
17405;DHT22;8820;54.604;18.226;2023-11-21T06:07:50;2.10;97.00
17405;DHT22;8820;54.604;18.226;2023-11-21T06:10:20;2.10;97.60
17405;DHT22;8820;54.604;18.226;2023-11-21T06:12:51;2.10;97.30
17405;DHT22;8820;54.604;18.226;2023-11-21T06:15:20;2.20;98.00
17405;DHT22;8820;54.604;18.226;2023-11-21T06:17:50;2.30;97.40
17405;DHT22;8820;54.604;18.226;2023-11-21T06:20:21;2.30;97.70
17405;DHT22;8820;54.604;18.226;2023-11-21T06:22:50;2.30;97.90
17405;DHT22;8820;54.604;18.226;2023-11-21T06:25:19;2.20;98.30
17405;DHT22;8820;54.604;18.226;2023-11-21T06:27:48;2.20;98.20
17405;DHT22;8820;54.604;18.226;2023-11-21T06:30:17;2.20;98.80
17405;DHT22;8820;54.604;18.226;2023-11-21T06:32:47;2.20;99.00
17405;DHT22;8820;54.604;18.226;2023-11-21T06:35:15;2.10;98.30
17405;DHT22;8820;54.604;18.226;2023-11-21T06:37:45;2.10;98.20
17405;DHT22;8820;54.604;18.226;2023-11-21T06:40:15;2.00;98.50
17405;DHT22;8820;54.604;18.226;2023-11-21T06:42:45;1.90;98.50
17405;DHT22;8820;54.604;18.226;2023-11-21T06:45:15;1.90;99.50
17405;DHT22;8820;54.604;18.226;2023-11-21T06:47:43;1.90;99.90
17405;DHT22;8820;54.604;18.226;2023-11-21T06:50:13;1.90;99.90
17405;DHT22;8820;54.604;18.226;2023-11-21T06:52:42;1.90;99.90
17405;DHT22;8820;54.604;18.226;2023-11-21T06:55:12;1.90;99.90
17405;DHT22;8820;54.604;18.226;2023-11-21T06:57:41;1.90;99.90
17405;DHT22;8820;54.604;18.226;2023-11-21T07:00:10;1.80;99.80
17405;DHT22;8820;54.604;18.226;2023-11-21T07:02:39;1.80;99.80
17405;DHT22;8820;54.604;18.226;2023-11-21T07:05:08;1.80;99.70
17405;DHT22;8820;54.604;18.226;2023-11-21T07:07:36;1.90;99.90
17405;DHT22;8820;54.604;18.226;2023-11-21T07:10:06;1.90;99.90
17405;DHT22;8820;54.604;18.226;2023-11-21T07:12:38;1.90;99.90
17405;DHT22;8820;54.604;18.226;2023-11-21T07:15:09;1.90;99.90
17405;DHT22;8820;54.604;18.226;2023-11-21T07:17:37;1.90;99.90
17405;DHT22;8820;54.604;18.226;2023-11-21T07:20:08;2.10;99.90
17405;DHT22;8820;54.604;18.226;2023-11-21T07:22:38;2.40;99.90
17405;DHT22;8820;54.604;18.226;2023-11-21T07:25:07;2.40;99.90
17405;DHT22;8820;54.604;18.226;2023-11-21T07:27:38;2.40;98.40
17405;DHT22;8820;54.604;18.226;2023-11-21T07:30:07;2.40;97.70
17405;DHT22;8820;54.604;18.226;2023-11-21T07:32:37;2.40;97.50
17405;DHT22;8820;54.604;18.226;2023-11-21T07:35:08;2.40;97.00
17405;DHT22;8820;54.604;18.226;2023-11-21T07:37:36;2.40;97.80
17405;DHT22;8820;54.604;18.226;2023-11-21T07:40:06;2.50;96.70
17405;DHT22;8820;54.604;18.226;2023-11-21T07:42:35;2.50;96.90
17405;DHT22;8820;54.604;18.226;2023-11-21T07:45:07;2.60;96.90
17405;DHT22;8820;54.604;18.226;2023-11-21T07:47:35;2.60;96.40
17405;DHT22;8820;54.604;18.226;2023-11-21T07:50:04;2.70;95.20
17405;DHT22;8820;54.604;18.226;2023-11-21T07:52:34;2.70;95.10
17405;DHT22;8820;54.604;18.226;2023-11-21T07:55:04;2.90;94.90
17405;DHT22;8820;54.604;18.226;2023-11-21T07:57:32;3.30;92.20
17405;DHT22;8820;54.604;18.226;2023-11-21T08:00:00;3.40;87.60
17405;DHT22;8820;54.604;18.226;2023-11-21T08:02:39;3.30;85.00
17405;DHT22;8820;54.604;18.226;2023-11-21T08:05:09;3.30;84.60
17405;DHT22;8820;54.604;18.226;2023-11-21T08:07:41;3.30;80.50
17405;DHT22;8820;54.604;18.226;2023-11-21T08:10:10;3.30;81.40
17405;DHT22;8820;54.604;18.226;2023-11-21T08:12:38;3.50;82.00
17405;DHT22;8820;54.604;18.226;2023-11-21T08:15:07;3.40;81.30
17405;DHT22;8820;54.604;18.226;2023-11-21T08:17:36;3.50;83.30
17405;DHT22;8820;54.604;18.226;2023-11-21T08:20:06;3.60;81.90
17405;DHT22;8820;54.604;18.226;2023-11-21T08:22:36;3.90;80.20
17405;DHT22;8820;54.604;18.226;2023-11-21T08:25:05;3.90;75.60
17405;DHT22;8820;54.604;18.226;2023-11-21T08:27:33;4.00;73.50
17405;DHT22;8820;54.604;18.226;2023-11-21T08:30:03;3.80;70.80
17405;DHT22;8820;54.604;18.226;2023-11-21T08:32:31;3.80;70.10
17405;DHT22;8820;54.604;18.226;2023-11-21T08:35:00;3.80;68.80
17405;DHT22;8820;54.604;18.226;2023-11-21T08:37:31;3.90;66.90
17405;DHT22;8820;54.604;18.226;2023-11-21T08:40:00;3.90;66.50
17405;DHT22;8820;54.604;18.226;2023-11-21T08:42:29;3.90;66.30
17405;DHT22;8820;54.604;18.226;2023-11-21T08:44:57;4.00;66.90
17405;DHT22;8820;54.604;18.226;2023-11-21T08:47:25;4.00;65.40
17405;DHT22;8820;54.604;18.226;2023-11-21T08:49:54;4.10;65.30
17405;DHT22;8820;54.604;18.226;2023-11-21T08:52:22;4.10;65.80
17405;DHT22;8820;54.604;18.226;2023-11-21T08:54:52;4.00;66.10
17405;DHT22;8820;54.604;18.226;2023-11-21T08:57:23;4.10;65.20
17405;DHT22;8820;54.604;18.226;2023-11-21T08:59:51;4.10;64.70
17405;DHT22;8820;54.604;18.226;2023-11-21T09:02:23;4.10;63.70
17405;DHT22;8820;54.604;18.226;2023-11-21T09:04:51;4.00;63.90
17405;DHT22;8820;54.604;18.226;2023-11-21T09:07:20;4.00;64.90
17405;DHT22;8820;54.604;18.226;2023-11-21T09:09:48;4.00;65.00
17405;DHT22;8820;54.604;18.226;2023-11-21T09:12:19;4.10;65.40
17405;DHT22;8820;54.604;18.226;2023-11-21T09:14:47;4.10;64.70
17405;DHT22;8820;54.604;18.226;2023-11-21T09:17:17;4.20;65.40
17405;DHT22;8820;54.604;18.226;2023-11-21T09:19:46;4.60;65.70
17405;DHT22;8820;54.604;18.226;2023-11-21T09:22:18;4.80;64.40
17405;DHT22;8820;54.604;18.226;2023-11-21T09:24:46;5.00;63.40
17405;DHT22;8820;54.604;18.226;2023-11-21T09:27:15;4.80;62.00
17405;DHT22;8820;54.604;18.226;2023-11-21T09:29:45;4.80;62.50
17405;DHT22;8820;54.604;18.226;2023-11-21T09:32:14;4.60;61.80
17405;DHT22;8820;54.604;18.226;2023-11-21T09:34:43;4.50;62.60
17405;DHT22;8820;54.604;18.226;2023-11-21T09:37:12;4.40;62.80
17405;DHT22;8820;54.604;18.226;2023-11-21T09:39:41;4.40;63.00
17405;DHT22;8820;54.604;18.226;2023-11-21T09:42:12;4.40;63.00
17405;DHT22;8820;54.604;18.226;2023-11-21T09:44:48;4.30;63.00
17405;DHT22;8820;54.604;18.226;2023-11-21T09:47:21;4.30;63.60
17405;DHT22;8820;54.604;18.226;2023-11-21T09:49:52;4.30;63.90
17405;DHT22;8820;54.604;18.226;2023-11-21T09:52:25;4.40;64.00
17405;DHT22;8820;54.604;18.226;2023-11-21T09:54:54;4.40;64.00
17405;DHT22;8820;54.604;18.226;2023-11-21T09:57:24;4.20;63.60
17405;DHT22;8820;54.604;18.226;2023-11-21T09:59:55;4.10;63.90
17405;DHT22;8820;54.604;18.226;2023-11-21T10:02:27;4.20;64.10
17405;DHT22;8820;54.604;18.226;2023-11-21T10:04:59;4.20;63.80
17405;DHT22;8820;54.604;18.226;2023-11-21T10:07:28;4.20;63.90
17405;DHT22;8820;54.604;18.226;2023-11-21T10:10:00;4.20;64.20
17405;DHT22;8820;54.604;18.226;2023-11-21T10:12:30;4.30;64.70
17405;DHT22;8820;54.604;18.226;2023-11-21T10:15:02;4.30;64.90
17405;DHT22;8820;54.604;18.226;2023-11-21T10:17:34;4.30;65.40
17405;DHT22;8820;54.604;18.226;2023-11-21T10:20:10;4.30;65.60
17405;DHT22;8820;54.604;18.226;2023-11-21T10:22:41;4.30;65.50
17405;DHT22;8820;54.604;18.226;2023-11-21T10:25:10;4.30;65.90
17405;DHT22;8820;54.604;18.226;2023-11-21T10:27:41;4.30;66.00
17405;DHT22;8820;54.604;18.226;2023-11-21T10:30:12;4.30;66.10
17405;DHT22;8820;54.604;18.226;2023-11-21T10:32:40;4.50;67.00
17405;DHT22;8820;54.604;18.226;2023-11-21T10:35:09;4.60;66.00
17405;DHT22;8820;54.604;18.226;2023-11-21T10:37:38;4.70;65.10
17405;DHT22;8820;54.604;18.226;2023-11-21T10:40:08;5.00;68.50
17405;DHT22;8820;54.604;18.226;2023-11-21T10:42:39;5.20;69.90
17405;DHT22;8820;54.604;18.226;2023-11-21T10:45:10;4.90;64.60
17405;DHT22;8820;54.604;18.226;2023-11-21T10:47:41;4.70;64.70
17405;DHT22;8820;54.604;18.226;2023-11-21T10:50:10;4.70;65.00
17405;DHT22;8820;54.604;18.226;2023-11-21T10:52:40;4.60;64.50
17405;DHT22;8820;54.604;18.226;2023-11-21T10:55:17;4.60;64.80
17405;DHT22;8820;54.604;18.226;2023-11-21T10:57:49;4.80;64.20
17405;DHT22;8820;54.604;18.226;2023-11-21T11:00:20;4.80;63.60
17405;DHT22;8820;54.604;18.226;2023-11-21T11:02:52;4.80;63.90
17405;DHT22;8820;54.604;18.226;2023-11-21T11:05:22;4.70;63.10
17405;DHT22;8820;54.604;18.226;2023-11-21T11:07:58;4.80;61.90
17405;DHT22;8820;54.604;18.226;2023-11-21T11:10:28;4.80;62.40
17405;DHT22;8820;54.604;18.226;2023-11-21T11:12:58;4.90;62.00
17405;DHT22;8820;54.604;18.226;2023-11-21T11:15:28;4.90;61.80
17405;DHT22;8820;54.604;18.226;2023-11-21T11:17:56;4.90;61.60
17405;DHT22;8820;54.604;18.226;2023-11-21T11:20:34;4.90;61.60
17405;DHT22;8820;54.604;18.226;2023-11-21T11:23:27;4.90;61.50
17405;DHT22;8820;54.604;18.226;2023-11-21T11:26:08;4.90;61.30
17405;DHT22;8820;54.604;18.226;2023-11-21T11:28:51;4.70;60.70
17405;DHT22;8820;54.604;18.226;2023-11-21T11:31:30;4.70;61.80
17405;DHT22;8820;54.604;18.226;2023-11-21T11:34:11;4.50;61.40
17405;DHT22;8820;54.604;18.226;2023-11-21T11:36:49;4.50;62.30
17405;DHT22;8820;54.604;18.226;2023-11-21T11:39:29;4.60;62.80
17405;DHT22;8820;54.604;18.226;2023-11-21T11:42:01;4.60;63.00
17405;DHT22;8820;54.604;18.226;2023-11-21T11:44:51;4.70;63.60
17405;DHT22;8820;54.604;18.226;2023-11-21T11:47:23;4.50;63.80
17405;DHT22;8820;54.604;18.226;2023-11-21T11:50:05;4.60;64.70
17405;DHT22;8820;54.604;18.226;2023-11-21T11:52:39;4.50;65.10
17405;DHT22;8820;54.604;18.226;2023-11-21T11:55:09;4.40;65.10
17405;DHT22;8820;54.604;18.226;2023-11-21T11:57:39;4.20;65.80
17405;DHT22;8820;54.604;18.226;2023-11-21T12:00:10;4.20;66.80
17405;DHT22;8820;54.604;18.226;2023-11-21T12:02:40;4.20;66.30
17405;DHT22;8820;54.604;18.226;2023-11-21T12:05:09;4.20;65.60
17405;DHT22;8820;54.604;18.226;2023-11-21T12:07:45;4.10;65.60
17405;DHT22;8820;54.604;18.226;2023-11-21T12:10:16;4.10;65.40
17405;DHT22;8820;54.604;18.226;2023-11-21T12:12:47;4.10;65.10
17405;DHT22;8820;54.604;18.226;2023-11-21T12:15:15;4.20;65.30
17405;DHT22;8820;54.604;18.226;2023-11-21T12:17:46;4.30;65.10
17405;DHT22;8820;54.604;18.226;2023-11-21T12:20:18;4.50;65.10
17405;DHT22;8820;54.604;18.226;2023-11-21T12:22:48;5.00;64.90
17405;DHT22;8820;54.604;18.226;2023-11-21T12:25:18;5.10;63.60
17405;DHT22;8820;54.604;18.226;2023-11-21T12:27:47;5.20;63.60
17405;DHT22;8820;54.604;18.226;2023-11-21T12:30:17;5.30;63.80
17405;DHT22;8820;54.604;18.226;2023-11-21T12:32:50;5.30;64.30
17405;DHT22;8820;54.604;18.226;2023-11-21T12:35:20;5.20;64.60
17405;DHT22;8820;54.604;18.226;2023-11-21T12:37:49;5.10;65.40
17405;DHT22;8820;54.604;18.226;2023-11-21T12:40:18;5.00;65.40
17405;DHT22;8820;54.604;18.226;2023-11-21T12:42:47;4.80;65.00
17405;DHT22;8820;54.604;18.226;2023-11-21T12:45:20;4.90;65.10
17405;DHT22;8820;54.604;18.226;2023-11-21T12:47:54;4.90;64.50
17405;DHT22;8820;54.604;18.226;2023-11-21T12:50:24;5.10;64.60
17405;DHT22;8820;54.604;18.226;2023-11-21T12:52:59;5.10;64.50
17405;DHT22;8820;54.604;18.226;2023-11-21T12:55:31;5.30;64.30
17405;DHT22;8820;54.604;18.226;2023-11-21T12:58:02;5.40;64.00
17405;DHT22;8820;54.604;18.226;2023-11-21T13:00:37;5.60;63.40
17405;DHT22;8820;54.604;18.226;2023-11-21T13:03:08;5.50;63.90
17405;DHT22;8820;54.604;18.226;2023-11-21T13:05:38;5.40;64.90
17405;DHT22;8820;54.604;18.226;2023-11-21T13:08:10;5.40;65.10
17405;DHT22;8820;54.604;18.226;2023-11-21T13:10:40;5.50;65.40
17405;DHT22;8820;54.604;18.226;2023-11-21T13:13:11;5.40;63.90
17405;DHT22;8820;54.604;18.226;2023-11-21T13:15:48;5.30;63.10
17405;DHT22;8820;54.604;18.226;2023-11-21T13:18:18;5.10;62.90
17405;DHT22;8820;54.604;18.226;2023-11-21T13:20:49;5.00;63.10
17405;DHT22;8820;54.604;18.226;2023-11-21T13:23:17;5.00;63.60
17405;DHT22;8820;54.604;18.226;2023-11-21T13:25:46;5.00;63.80
17405;DHT22;8820;54.604;18.226;2023-11-21T13:28:20;5.00;64.10
17405;DHT22;8820;54.604;18.226;2023-11-21T13:30:51;4.90;63.50
17405;DHT22;8820;54.604;18.226;2023-11-21T13:33:21;4.60;63.50
17405;DHT22;8820;54.604;18.226;2023-11-21T13:35:54;4.50;64.70
17405;DHT22;8820;54.604;18.226;2023-11-21T13:38:23;4.50;65.40
17405;DHT22;8820;54.604;18.226;2023-11-21T13:40:53;4.40;66.20
17405;DHT22;8820;54.604;18.226;2023-11-21T13:43:22;4.30;66.30
17405;DHT22;8820;54.604;18.226;2023-11-21T13:45:53;4.40;67.10
17405;DHT22;8820;54.604;18.226;2023-11-21T13:48:28;4.40;67.20
17405;DHT22;8820;54.604;18.226;2023-11-21T13:51:01;4.30;67.30
17405;DHT22;8820;54.604;18.226;2023-11-21T13:53:40;4.30;67.90
17405;DHT22;8820;54.604;18.226;2023-11-21T13:56:09;4.20;68.40
17405;DHT22;8820;54.604;18.226;2023-11-21T13:58:38;4.20;68.50
17405;DHT22;8820;54.604;18.226;2023-11-21T14:01:13;4.20;68.90
17405;DHT22;8820;54.604;18.226;2023-11-21T14:04:04;4.10;69.10
17405;DHT22;8820;54.604;18.226;2023-11-21T14:06:49;4.00;69.60
17405;DHT22;8820;54.604;18.226;2023-11-21T14:09:20;3.90;69.10
17405;DHT22;8820;54.604;18.226;2023-11-21T14:11:52;3.80;69.60
17405;DHT22;8820;54.604;18.226;2023-11-21T14:14:23;3.80;69.90
17405;DHT22;8820;54.604;18.226;2023-11-21T14:16:53;3.70;70.50
17405;DHT22;8820;54.604;18.226;2023-11-21T14:19:24;3.70;70.50
17405;DHT22;8820;54.604;18.226;2023-11-21T14:21:57;3.70;71.10
17405;DHT22;8820;54.604;18.226;2023-11-21T14:24:25;3.70;71.70
17405;DHT22;8820;54.604;18.226;2023-11-21T14:26:54;3.60;72.10
17405;DHT22;8820;54.604;18.226;2023-11-21T14:29:22;3.60;72.80
17405;DHT22;8820;54.604;18.226;2023-11-21T14:31:51;3.60;73.40
17405;DHT22;8820;54.604;18.226;2023-11-21T14:34:24;3.50;74.00
17405;DHT22;8820;54.604;18.226;2023-11-21T14:36:53;3.50;76.60
17405;DHT22;8820;54.604;18.226;2023-11-21T14:39:22;3.50;78.90
17405;DHT22;8820;54.604;18.226;2023-11-21T14:41:54;3.50;79.20
17405;DHT22;8820;54.604;18.226;2023-11-21T14:44:23;3.40;79.20
17405;DHT22;8820;54.604;18.226;2023-11-21T14:46:54;3.40;80.00
17405;DHT22;8820;54.604;18.226;2023-11-21T14:49:26;3.40;79.90
17405;DHT22;8820;54.604;18.226;2023-11-21T14:52:03;3.40;80.80
17405;DHT22;8820;54.604;18.226;2023-11-21T14:54:31;3.30;81.40
17405;DHT22;8820;54.604;18.226;2023-11-21T14:57:13;3.20;81.80
17405;DHT22;8820;54.604;18.226;2023-11-21T14:59:46;3.20;82.60
17405;DHT22;8820;54.604;18.226;2023-11-21T15:02:16;3.20;83.50
17405;DHT22;8820;54.604;18.226;2023-11-21T15:04:49;3.20;83.70
17405;DHT22;8820;54.604;18.226;2023-11-21T15:07:19;3.20;83.60
17405;DHT22;8820;54.604;18.226;2023-11-21T15:09:47;3.10;84.60
17405;DHT22;8820;54.604;18.226;2023-11-21T15:12:17;3.10;85.10
17405;DHT22;8820;54.604;18.226;2023-11-21T15:14:48;3.00;85.90
17405;DHT22;8820;54.604;18.226;2023-11-21T15:17:19;3.00;88.20
17405;DHT22;8820;54.604;18.226;2023-11-21T15:19:53;3.00;89.20
17405;DHT22;8820;54.604;18.226;2023-11-21T15:22:22;3.00;90.60
17405;DHT22;8820;54.604;18.226;2023-11-21T15:24:50;2.90;91.00
17405;DHT22;8820;54.604;18.226;2023-11-21T15:27:21;2.90;92.10
17405;DHT22;8820;54.604;18.226;2023-11-21T15:29:49;2.90;92.30
17405;DHT22;8820;54.604;18.226;2023-11-21T15:32:18;2.80;93.50
17405;DHT22;8820;54.604;18.226;2023-11-21T15:34:47;2.70;94.70
17405;DHT22;8820;54.604;18.226;2023-11-21T15:37:17;2.70;96.20
17405;DHT22;8820;54.604;18.226;2023-11-21T15:39:45;2.70;96.40
17405;DHT22;8820;54.604;18.226;2023-11-21T15:42:13;2.60;96.50
17405;DHT22;8820;54.604;18.226;2023-11-21T15:44:42;2.60;96.70
17405;DHT22;8820;54.604;18.226;2023-11-21T15:47:10;2.50;97.40
17405;DHT22;8820;54.604;18.226;2023-11-21T15:49:39;2.50;97.40
17405;DHT22;8820;54.604;18.226;2023-11-21T15:52:07;2.50;97.70
17405;DHT22;8820;54.604;18.226;2023-11-21T15:54:39;2.50;97.20
17405;DHT22;8820;54.604;18.226;2023-11-21T15:57:08;2.40;97.70
17405;DHT22;8820;54.604;18.226;2023-11-21T15:59:39;2.40;98.20
17405;DHT22;8820;54.604;18.226;2023-11-21T16:02:10;2.40;98.40
17405;DHT22;8820;54.604;18.226;2023-11-21T16:04:39;2.40;98.80